createdAt,value
2018-07-03T00:01:52.629Z,12.90
2018-07-03T00:04:23.470Z,12.80
2018-07-03T00:06:58.256Z,12.70
2018-07-03T00:09:31.586Z,12.60
2018-07-03T00:12:06.794Z,12.50
2018-07-03T00:14:37.866Z,12.50
2018-07-03T00:17:13.366Z,12.50
2018-07-03T00:19:42.266Z,12.50
2018-07-03T00:22:11.207Z,12.40
2018-07-03T00:24:41.281Z,12.40
2018-07-03T00:27:10.193Z,12.40
2018-07-03T00:29:41.098Z,12.30
2018-07-03T00:32:10.022Z,12.30
2018-07-03T00:34:39.954Z,12.20
2018-07-03T00:37:18.965Z,12.20
2018-07-03T00:39:48.897Z,12.10
2018-07-03T00:42:18.737Z,12.10
2018-07-03T00:44:48.621Z,12.00
2018-07-03T00:47:21.669Z,11.90
2018-07-03T00:49:54.437Z,11.90
2018-07-03T00:52:23.314Z,11.90
2018-07-03T00:54:57.696Z,11.90
2018-07-03T00:57:30.657Z,12.00
2018-07-03T01:00:10.793Z,12.10
2018-07-03T01:02:41.665Z,12.10
2018-07-03T01:05:13.709Z,12.00
2018-07-03T01:07:43.637Z,11.90
2018-07-03T01:10:16.845Z,11.80
2018-07-03T01:12:49.209Z,11.80
2018-07-03T01:15:18.069Z,11.70
2018-07-03T01:17:46.993Z,11.60
2018-07-03T01:20:15.832Z,11.60
2018-07-03T01:22:45.645Z,11.70
2018-07-03T01:25:17.461Z,11.90
2018-07-03T01:27:50.228Z,11.90
2018-07-03T01:30:19.133Z,11.80
2018-07-03T01:32:47.977Z,11.80
2018-07-03T01:35:16.892Z,11.70
2018-07-03T01:37:46.825Z,11.60
2018-07-03T01:40:15.693Z,11.50
2018-07-03T01:42:45.242Z,11.40
2018-07-03T01:45:14.144Z,11.40
2018-07-03T01:47:43.054Z,11.40
2018-07-03T01:50:17.016Z,11.40
2018-07-03T01:52:47.881Z,11.40
2018-07-03T01:55:16.865Z,11.40
2018-07-03T01:57:46.700Z,11.50
2018-07-03T02:00:24.425Z,11.50
2018-07-03T02:02:55.353Z,11.50
2018-07-03T02:05:29.209Z,11.40
2018-07-03T02:08:01.221Z,11.40
2018-07-03T02:10:31.144Z,11.40
2018-07-03T02:13:01.017Z,11.40
2018-07-03T02:15:31.820Z,11.40
2018-07-03T02:18:04.985Z,11.30
2018-07-03T02:23:08.108Z,11.30
2018-07-03T02:25:40.869Z,11.40
2018-07-03T02:28:11.689Z,11.50
2018-07-03T02:30:40.549Z,11.60
2018-07-03T02:33:10.392Z,11.50
2018-07-03T02:35:39.305Z,11.80
2018-07-03T02:38:19.465Z,12.40
2018-07-03T02:40:53.985Z,12.80
2018-07-03T02:43:23.873Z,13.10
2018-07-03T02:45:53.757Z,13.30
2018-07-03T02:48:22.621Z,13.50
2018-07-03T02:50:53.546Z,13.70
2018-07-03T02:53:24.465Z,13.50
2018-07-03T02:55:54.969Z,13.00
2018-07-03T02:58:31.078Z,12.50
2018-07-03T03:00:59.969Z,12.00
2018-07-03T03:03:30.869Z,11.70
2018-07-03T03:06:01.757Z,11.40
2018-07-03T03:08:31.629Z,11.20
2018-07-03T03:11:02.443Z,11.00
2018-07-03T03:13:32.281Z,10.90
2018-07-03T03:16:01.145Z,10.90
2018-07-03T03:18:32.045Z,10.90
2018-07-03T03:21:01.965Z,10.80
2018-07-03T03:23:30.745Z,10.70
2018-07-03T03:26:03.145Z,10.70
2018-07-03T03:28:37.684Z,10.90
2018-07-03T03:31:06.561Z,11.30
2018-07-03T03:33:36.340Z,11.50
2018-07-03T03:36:06.189Z,11.40
2018-07-03T03:38:35.067Z,11.30
2018-07-03T03:41:14.550Z,11.10
2018-07-03T03:43:50.811Z,11.10
2018-07-03T03:46:21.709Z,11.10
2018-07-03T03:48:53.065Z,11.10
2018-07-03T03:51:31.497Z,11.10
2018-07-03T03:54:00.337Z,11.20
2018-07-03T03:56:32.985Z,11.30
2018-07-03T03:59:02.873Z,11.30
2018-07-03T04:01:34.976Z,11.30
2018-07-03T04:04:06.969Z,11.30
2018-07-03T04:06:36.757Z,11.30
2018-07-03T04:09:07.841Z,11.30
2018-07-03T04:11:40.503Z,11.30
2018-07-03T04:14:12.739Z,11.40
2018-07-03T04:16:46.761Z,11.60
2018-07-03T04:19:16.580Z,11.70
2018-07-03T04:21:46.392Z,11.80
2018-07-03T04:24:15.165Z,11.80
2018-07-03T04:27:07.848Z,11.90
2018-07-03T04:29:42.329Z,12.00
2018-07-03T04:34:46.745Z,12.20
2018-07-03T04:37:16.661Z,12.30
2018-07-03T04:39:50.205Z,12.40
2018-07-03T04:42:22.069Z,12.50
2018-07-03T04:44:50.928Z,12.70
2018-07-03T04:47:21.805Z,12.90
2018-07-03T04:49:58.784Z,13.00
2018-07-03T04:52:29.620Z,13.20
2018-07-03T04:54:58.462Z,13.50
2018-07-03T04:57:27.276Z,13.80
2018-07-03T04:59:57.064Z,14.00
2018-07-03T05:02:26.169Z,14.20
2018-07-03T05:04:55.053Z,14.50
2018-07-03T05:07:27.632Z,14.60
2018-07-03T05:10:04.209Z,14.70
2018-07-03T05:12:38.117Z,14.80
2018-07-03T05:15:10.265Z,15.00
2018-07-03T05:17:39.093Z,15.20
2018-07-03T05:20:08.872Z,15.40
2018-07-03T05:22:39.600Z,15.50
2018-07-03T05:25:08.457Z,15.70
2018-07-03T05:27:39.216Z,15.90
2018-07-03T05:30:21.682Z,16.00
2018-07-03T05:32:52.700Z,16.10
2018-07-03T05:35:22.540Z,16.30
2018-07-03T05:37:51.385Z,16.40
2018-07-03T05:40:20.193Z,16.50
2018-07-03T05:45:23.009Z,17.20
2018-07-03T05:48:03.585Z,17.50
2018-07-03T05:50:38.617Z,17.80
2018-07-03T05:53:31.353Z,18.00
2018-07-03T05:56:00.237Z,18.40
2018-07-03T05:58:30.013Z,18.80
2018-07-03T06:01:08.489Z,19.00
2018-07-03T06:03:39.257Z,19.20
2018-07-03T06:06:11.893Z,19.40
2018-07-03T06:08:42.693Z,19.70
2018-07-03T06:13:57.413Z,20.00
2018-07-03T06:16:30.296Z,20.10
2018-07-03T06:19:05.736Z,20.30
2018-07-03T06:21:34.619Z,20.40
2018-07-03T06:24:13.557Z,20.60
2018-07-03T06:26:46.141Z,20.90
2018-07-03T06:29:20.583Z,21.20
2018-07-03T06:31:53.389Z,21.30
2018-07-03T06:34:30.692Z,21.40
2018-07-03T06:37:07.473Z,21.50
2018-07-03T06:39:36.300Z,21.60
2018-07-03T06:42:12.348Z,21.70
2018-07-03T06:44:42.141Z,21.90
2018-07-03T06:47:19.437Z,21.90
2018-07-03T06:55:39.197Z,22.10
2018-07-03T06:58:13.616Z,22.40
2018-07-03T07:03:39.452Z,22.30
2018-07-03T07:06:15.196Z,22.30
2018-07-03T07:08:48.308Z,22.50
2018-07-03T07:11:26.822Z,22.60
2018-07-03T07:14:03.124Z,22.70
2018-07-03T07:16:31.981Z,22.90
2018-07-03T07:19:05.645Z,23.00
2018-07-03T07:21:38.648Z,23.20
2018-07-03T07:24:25.613Z,23.50
2018-07-03T07:26:56.353Z,23.40
2018-07-03T07:29:37.540Z,23.50
2018-07-03T07:32:11.248Z,23.80
2018-07-03T07:34:40.019Z,23.90
2018-07-03T07:37:12.304Z,24.40
2018-07-03T07:39:47.692Z,24.60
2018-07-03T07:44:52.528Z,25.00
2018-07-03T07:47:23.253Z,25.40
2018-07-03T07:49:52.020Z,25.50
2018-07-03T07:52:21.757Z,25.60
2018-07-03T07:54:50.544Z,25.70
2018-07-03T07:57:22.908Z,25.90
2018-07-03T07:59:51.704Z,26.20
2018-07-03T08:02:24.204Z,26.50
2018-07-03T08:04:53.956Z,26.50
2018-07-03T08:07:39.304Z,26.60
2018-07-03T08:10:12.136Z,26.90
2018-07-03T08:12:46.332Z,26.90
2018-07-03T08:15:28.600Z,27.40
2018-07-03T08:17:58.388Z,27.70
2018-07-03T08:20:38.029Z,28.00
2018-07-03T08:23:06.800Z,28.50
2018-07-03T08:25:39.442Z,29.00
2018-07-03T08:28:27.752Z,29.40
2018-07-03T08:31:00.192Z,29.10
2018-07-03T08:33:29.980Z,29.60
2018-07-03T08:36:13.479Z,29.80
2018-07-03T08:38:46.012Z,30.10
2018-07-03T08:41:14.755Z,30.40
2018-07-03T08:43:51.484Z,30.40
2018-07-03T08:49:10.012Z,30.10
2018-07-03T08:52:00.517Z,30.40
2018-07-03T08:54:33.323Z,30.40
2018-07-03T08:57:07.568Z,30.50
2018-07-03T08:59:37.360Z,30.80
2018-07-03T09:02:06.288Z,31.20
2018-07-03T09:04:38.392Z,31.80
2018-07-03T09:10:02.516Z,32.20
2018-07-03T09:12:38.472Z,32.50
2018-07-03T09:17:38.371Z,31.00
2018-07-03T09:20:09.275Z,30.80
2018-07-03T09:22:38.032Z,30.70
2018-07-03T09:25:12.458Z,31.10
2018-07-03T09:27:43.259Z,31.60
2018-07-03T09:30:12.036Z,31.60
2018-07-03T09:32:40.768Z,32.10
2018-07-03T09:35:11.596Z,32.80
2018-07-03T09:37:56.896Z,33.10
2018-07-03T09:40:28.942Z,33.70
2018-07-03T09:42:57.881Z,33.40
2018-07-03T09:45:29.971Z,33.20
2018-07-03T09:48:15.076Z,33.50
2018-07-03T09:50:44.816Z,33.80
2018-07-03T09:53:26.267Z,34.50
2018-07-03T09:55:56.032Z,33.50
2018-07-03T09:58:34.687Z,32.50
2018-07-03T10:03:40.511Z,33.10
2018-07-03T10:06:09.292Z,33.40
2018-07-03T10:08:38.615Z,34.90
2018-07-03T10:11:13.715Z,36.20
2018-07-03T10:13:55.192Z,36.80
2018-07-03T10:16:35.756Z,37.60
2018-07-03T10:19:05.888Z,38.10
2018-07-03T10:21:40.768Z,38.60
2018-07-03T10:27:08.991Z,38.30
2018-07-03T10:29:37.807Z,36.50
2018-07-03T10:32:23.690Z,35.80
2018-07-03T10:35:08.756Z,36.20
2018-07-03T10:37:37.502Z,36.10
2018-07-03T10:40:11.391Z,36.20
2018-07-03T10:42:45.775Z,36.70
2018-07-03T10:45:20.181Z,37.30
2018-07-03T10:47:50.939Z,37.70
2018-07-03T10:53:11.147Z,36.40
2018-07-03T10:55:44.136Z,36.30
2018-07-03T10:58:20.071Z,36.20
2018-07-03T11:00:48.876Z,36.30
2018-07-03T11:03:20.856Z,37.20
2018-07-03T11:05:54.653Z,36.20
2018-07-03T11:08:28.608Z,34.80
2018-07-03T11:11:02.551Z,34.90
2018-07-03T11:13:32.376Z,34.90
2018-07-03T11:16:03.196Z,35.40
2018-07-03T11:18:33.020Z,35.70
2018-07-03T11:21:12.206Z,36.60
2018-07-03T11:23:53.611Z,37.30
2018-07-03T11:26:32.173Z,35.90
2018-07-03T11:29:04.565Z,35.30
2018-07-03T11:31:33.339Z,36.40
2018-07-03T11:34:06.590Z,38.10
2018-07-03T11:36:35.335Z,38.90
2018-07-03T11:39:09.740Z,38.70
2018-07-03T11:41:38.497Z,38.70
2018-07-03T11:44:23.340Z,39.60
2018-07-03T11:46:54.099Z,38.40
2018-07-03T11:52:10.183Z,37.20
2018-07-03T11:54:39.015Z,39.20
2018-07-03T11:57:11.700Z,39.40
2018-07-03T11:59:43.984Z,39.90
2018-07-03T12:02:13.471Z,39.30
2018-07-03T12:04:53.431Z,39.30
2018-07-03T12:07:32.787Z,39.60
2018-07-03T12:10:02.535Z,39.40
2018-07-03T12:12:34.403Z,40.30
2018-07-03T12:15:04.191Z,40.90
2018-07-03T12:17:32.999Z,40.70
2018-07-03T12:20:06.391Z,39.40
2018-07-03T12:22:41.816Z,38.40
2018-07-03T12:25:11.987Z,38.30
2018-07-03T12:27:45.779Z,39.70
2018-07-03T12:30:15.635Z,40.10
2018-07-03T12:32:44.459Z,39.70
2018-07-03T12:35:13.199Z,39.60
2018-07-03T12:37:42.099Z,39.40
2018-07-03T12:40:11.019Z,39.50
2018-07-03T12:42:44.164Z,40.00
2018-07-03T12:45:16.507Z,40.80
2018-07-03T12:47:47.355Z,41.60
2018-07-03T12:50:21.251Z,41.90
2018-07-03T12:52:53.319Z,40.50
2018-07-03T12:55:24.089Z,39.60
2018-07-03T12:57:56.247Z,39.90
2018-07-03T13:00:25.098Z,40.40
2018-07-03T13:02:53.923Z,40.50
2018-07-03T13:05:22.827Z,40.10
2018-07-03T13:07:51.698Z,39.50
2018-07-03T13:10:26.737Z,39.70
2018-07-03T13:15:33.466Z,41.90
2018-07-03T13:18:17.866Z,39.30
2018-07-03T13:20:53.483Z,37.30
2018-07-03T13:23:24.516Z,37.90
2018-07-03T13:28:47.160Z,38.60
2018-07-03T13:31:26.268Z,38.30
2018-07-03T13:33:55.102Z,39.10
2018-07-03T13:36:26.017Z,39.80
2018-07-03T13:38:54.736Z,39.60
2018-07-03T13:41:23.462Z,40.10
2018-07-03T13:43:52.385Z,40.70
2018-07-03T13:46:31.779Z,39.50
2018-07-03T13:49:09.598Z,39.40
2018-07-03T13:51:44.451Z,40.90
2018-07-03T13:54:19.174Z,39.70
2018-07-03T13:56:47.938Z,40.20
2018-07-03T13:59:28.771Z,39.70
2018-07-03T14:01:57.498Z,39.60
2018-07-03T14:04:26.322Z,40.60
2018-07-03T14:07:04.944Z,42.00
2018-07-03T14:09:33.739Z,43.40
2018-07-03T14:12:06.230Z,42.60
2018-07-03T14:14:36.960Z,42.10
2018-07-03T14:17:08.519Z,42.30
2018-07-03T14:19:44.351Z,42.60
2018-07-03T14:22:16.745Z,42.80
2018-07-03T14:24:53.075Z,41.30
2018-07-03T14:27:25.154Z,41.80
2018-07-03T14:30:18.362Z,42.10
2018-07-03T14:32:47.243Z,41.00
2018-07-03T14:35:24.331Z,41.00
2018-07-03T14:37:53.414Z,41.10
2018-07-03T14:40:22.178Z,41.40
2018-07-03T14:43:02.108Z,41.10
2018-07-03T14:45:32.874Z,41.60
2018-07-03T14:48:03.695Z,42.00
2018-07-03T14:50:35.755Z,39.50
2018-07-03T14:56:17.407Z,38.70
2018-07-03T14:58:46.270Z,39.50
2018-07-03T15:01:20.786Z,38.40
2018-07-03T15:04:09.806Z,39.60
2018-07-03T15:06:39.667Z,39.90
2018-07-03T15:09:10.184Z,40.60
2018-07-03T15:11:40.003Z,40.60
2018-07-03T15:14:16.363Z,39.90
2018-07-03T15:19:44.846Z,37.50
2018-07-03T15:22:15.872Z,38.50
2018-07-03T15:24:44.631Z,39.90
2018-07-03T15:27:16.467Z,39.80
2018-07-03T15:29:56.638Z,38.40
2018-07-03T15:32:33.181Z,36.00
2018-07-03T15:35:15.894Z,36.90
2018-07-03T15:37:49.778Z,38.60
2018-07-03T15:40:21.890Z,40.50
2018-07-03T15:45:34.870Z,41.20
2018-07-03T15:48:03.670Z,40.50
2018-07-03T15:50:33.386Z,39.70
2018-07-03T15:53:02.126Z,39.30
2018-07-03T15:55:30.966Z,39.20
2018-07-03T15:57:59.698Z,39.20
2018-07-03T16:00:28.614Z,37.50
2018-07-03T16:03:10.592Z,37.00
2018-07-03T16:05:58.463Z,36.50
2018-07-03T16:08:39.722Z,35.70
2018-07-03T16:11:11.658Z,35.50
2018-07-03T16:13:40.490Z,35.20
2018-07-03T16:16:09.278Z,35.60
2018-07-03T16:18:41.442Z,36.60
2018-07-03T16:21:14.401Z,37.20
2018-07-03T16:23:44.160Z,37.80
2018-07-03T16:26:20.066Z,38.30
2018-07-03T16:28:52.004Z,37.80
2018-07-03T16:31:26.134Z,36.40
2018-07-03T16:33:57.510Z,35.20
2018-07-03T16:36:32.090Z,34.80
2018-07-03T16:39:04.152Z,34.50
2018-07-03T16:41:33.889Z,33.30
2018-07-03T16:44:06.824Z,32.40
2018-07-03T16:46:35.550Z,31.70
2018-07-03T16:49:07.902Z,31.00
2018-07-03T16:54:09.970Z,31.80
2018-07-03T16:56:42.314Z,31.30
2018-07-03T16:59:11.054Z,31.10
2018-07-03T17:01:40.814Z,30.90
2018-07-03T17:04:12.669Z,31.40
2018-07-03T17:06:42.498Z,32.40
2018-07-03T17:09:13.350Z,33.10
2018-07-03T17:11:44.161Z,33.80
2018-07-03T17:14:16.246Z,34.60
2018-07-03T17:16:44.990Z,34.90
2018-07-03T17:19:19.170Z,34.70
2018-07-03T17:21:48.903Z,34.70
2018-07-03T17:24:18.625Z,34.80
2018-07-03T17:26:52.794Z,34.60
2018-07-03T17:29:22.570Z,34.40
2018-07-03T17:31:51.362Z,34.30
2018-07-03T17:34:25.157Z,34.20
2018-07-03T17:36:53.878Z,33.80
2018-07-03T17:39:33.769Z,33.80
2018-07-03T17:42:17.245Z,33.70
2018-07-03T17:45:57.134Z,33.50
2018-07-03T17:48:33.646Z,33.30
2018-07-03T17:51:02.458Z,33.00
2018-07-03T17:53:31.253Z,32.90
2018-07-03T17:56:00.994Z,33.00
2018-07-03T17:58:29.766Z,33.00
2018-07-03T18:03:31.417Z,32.30
2018-07-03T18:06:10.989Z,32.20
2018-07-03T18:08:47.638Z,32.20
2018-07-03T18:13:48.117Z,31.70
2018-07-03T18:16:17.439Z,31.40
2018-07-03T18:18:56.289Z,30.50
2018-07-03T18:21:25.109Z,29.60
2018-07-03T18:23:53.866Z,28.70
2018-07-03T18:26:23.143Z,28.00
2018-07-03T18:28:51.582Z,27.40
2018-07-03T18:31:19.841Z,26.90
2018-07-03T18:33:50.697Z,26.50
2018-07-03T18:36:20.481Z,26.00
2018-07-03T18:39:06.081Z,25.70
2018-07-03T18:41:35.813Z,25.40
2018-07-03T18:44:06.665Z,25.10
2018-07-03T18:46:35.475Z,24.90
2018-07-03T18:49:05.286Z,24.70
2018-07-03T18:51:36.138Z,24.50
2018-07-03T18:54:07.081Z,24.20
2018-07-03T18:56:36.848Z,23.90
2018-07-03T18:59:06.705Z,23.60
2018-07-03T19:01:47.373Z,23.30
2018-07-03T19:04:19.937Z,23.10
2018-07-03T19:06:48.727Z,23.00
2018-07-03T19:09:19.549Z,22.80
2018-07-03T19:11:54.129Z,22.50
2018-07-03T19:14:24.881Z,22.30
2018-07-03T19:16:57.853Z,22.00
2018-07-03T19:19:26.728Z,21.90
2018-07-03T19:21:55.605Z,21.80
2018-07-03T19:27:04.769Z,21.80
2018-07-03T19:29:33.645Z,21.80
2018-07-03T19:34:42.058Z,21.50
2018-07-03T19:37:16.758Z,21.40
2018-07-03T19:39:47.529Z,21.30
2018-07-03T19:42:17.238Z,21.30
2018-07-03T19:44:47.061Z,21.20
2018-07-03T19:47:15.921Z,21.10
2018-07-03T19:50:02.825Z,21.00
2018-07-03T19:52:33.695Z,20.90
2018-07-03T19:55:02.470Z,20.80
2018-07-03T19:57:39.177Z,20.70
2018-07-03T20:00:08.373Z,20.50
2018-07-03T20:02:42.553Z,20.40
2018-07-03T20:05:12.302Z,20.20
2018-07-03T20:07:41.042Z,20.00
2018-07-03T20:10:10.778Z,19.90
2018-07-03T20:12:39.649Z,19.80
2018-07-03T20:15:10.466Z,19.60
2018-07-03T20:17:39.226Z,19.60
2018-07-03T20:20:11.358Z,19.40
2018-07-03T20:22:46.961Z,19.20
2018-07-03T20:25:15.794Z,19.10
2018-07-03T20:27:45.574Z,19.00
2018-07-03T20:30:15.361Z,18.90
2018-07-03T20:32:46.705Z,18.80
2018-07-03T20:35:20.953Z,18.70
2018-07-03T20:38:02.090Z,18.60
2018-07-03T20:40:58.066Z,18.40
2018-07-03T20:43:29.177Z,18.30
2018-07-03T20:46:08.882Z,18.30
2018-07-03T20:48:45.213Z,18.20
2018-07-03T20:51:17.946Z,18.20
2018-07-03T20:53:50.061Z,18.10
2018-07-03T20:56:18.927Z,18.10
2018-07-03T20:58:51.061Z,18.00
2018-07-03T21:01:20.897Z,17.90
2018-07-03T21:03:52.289Z,17.90
2018-07-03T21:06:22.065Z,17.80
2018-07-03T21:08:51.266Z,17.80
2018-07-03T21:11:20.173Z,17.60
2018-07-03T21:13:48.958Z,17.40
2018-07-03T21:16:21.529Z,17.10
2018-07-03T21:18:55.377Z,17.00
2018-07-03T21:21:29.581Z,16.80
2018-07-03T21:23:58.489Z,16.50
2018-07-03T21:26:27.314Z,16.40
2018-07-03T21:28:56.141Z,16.40
2018-07-03T21:31:24.929Z,16.50
2018-07-03T21:33:55.733Z,16.60
2018-07-03T21:36:24.513Z,16.60
2018-07-03T21:38:53.727Z,16.60
2018-07-03T21:41:22.589Z,16.40
2018-07-03T21:43:52.351Z,16.30
2018-07-03T21:46:22.145Z,16.20
2018-07-03T21:48:50.959Z,16.20
2018-07-03T21:51:20.753Z,16.10
2018-07-03T21:53:57.033Z,16.10
2018-07-03T21:56:25.996Z,16.20
2018-07-03T21:59:05.504Z,16.30
2018-07-03T22:01:46.458Z,16.40
2018-07-03T22:04:23.092Z,16.30
2018-07-03T22:06:51.885Z,16.30
2018-07-03T22:12:05.121Z,16.10
2018-07-03T22:14:36.801Z,16.00
2018-07-03T22:17:06.965Z,15.90
2018-07-03T22:19:35.747Z,15.80
2018-07-03T22:22:07.826Z,15.60
2018-07-03T22:24:39.781Z,15.60
2018-07-03T22:27:16.315Z,15.60
2018-07-03T22:29:45.133Z,15.60
2018-07-03T22:32:19.717Z,15.40
2018-07-03T22:34:48.553Z,15.40
2018-07-03T22:37:21.378Z,15.20
2018-07-03T22:39:50.275Z,15.20
2018-07-03T22:42:28.911Z,15.10
2018-07-03T22:44:58.645Z,15.00
2018-07-03T22:47:39.258Z,15.00
2018-07-03T22:50:26.715Z,15.00
2018-07-03T22:52:57.517Z,15.00
2018-07-03T22:55:36.034Z,15.00
2018-07-03T22:58:05.808Z,15.00
2018-07-03T23:00:49.107Z,15.00
2018-07-03T23:03:27.800Z,15.00
2018-07-03T23:05:56.629Z,15.00
2018-07-03T23:08:25.448Z,15.00
2018-07-03T23:10:59.811Z,15.00
2018-07-03T23:13:28.556Z,15.00
2018-07-03T23:15:57.413Z,15.00
2018-07-03T23:18:29.301Z,14.90
2018-07-03T23:21:00.141Z,14.80
2018-07-03T23:23:28.944Z,14.80
2018-07-03T23:25:57.813Z,14.80
2018-07-03T23:28:27.632Z,14.80
2018-07-03T23:33:27.989Z,14.70
2018-07-03T23:35:56.912Z,14.60
2018-07-03T23:38:27.683Z,14.40
2018-07-03T23:40:56.485Z,14.40
2018-07-03T23:43:27.348Z,14.20
2018-07-03T23:45:59.825Z,14.20
2018-07-03T23:48:41.853Z,14.20
2018-07-03T23:51:26.991Z,14.30
2018-07-03T23:54:07.388Z,14.30
2018-07-03T23:59:26.377Z,14.40
